Snoqualmie, Washington
Current Conditions -  °F | °C
As of 8:53 AM on Thursday 27 Nov 2014 (Local Time) from KRNT Reporting Station
Overcast Overcast  
Wind Chill: 59°   Ceiling: 3200
Heat Index: 59°   Visibility: 10mi
Dew Point: 50°   Wind: 10mph
Humidity: 72%   Direction: 160°SSE
Pressure: 29.85"   Gusts: NA
Location:  47.53°N, 121.83°W
Report Text: KRNT 271653Z 16009KT 10SM OVC032 15/10 A2985 RMK AO2 RAE06 SLP111 P0001 T01500100
Loading
Personal Weather Stations






























Interactive Weather Map New forecast layout! Learn more

10-Day Weather Forecast

Advertisements
Track Severe Weather on mobile